Date,TemperatureHighF,TemperatureAvgF,TemperatureLowF,DewpointHighF,DewpointAvgF,DewpointLowF,HumidityHigh,HumidityAvg,HumidityLow,PressureMaxIn,PressureMinIn,WindSpeedMaxMPH,WindSpeedAvgMPH,GustSpeedMaxMPH,PrecipitationSumIn
2013-3-1,43.1,37.8,34.2,32.5,30.2,25.0,87,74,58,29.76,29.58,7,1,10,0.00
2013-3-2,37.7,33.9,29.3,27.3,25.5,23.9,88,71,63,29.75,29.68,0,0,0,0.00
2013-3-3,38.8,30.6,27.0,24.0,20.4,17.9,80,66,50,29.74,29.64,9,1,17,0.00
2013-3-4,37.4,31.1,25.8,22.9,20.8,16.8,76,66,54,29.89,29.73,13,4,24,0.00
2013-3-5,45.9,37.0,29.9,28.6,25.7,21.8,75,64,49,30.01,29.88,8,3,19,0.00
2013-3-6,40.9,38.3,36.4,37.0,31.4,28.0,90,76,68,29.97,29.86,19,6,27,0.02
2013-3-7,37.1,34.4,31.6,32.3,30.1,27.0,96,84,70,30.07,29.92,16,5,22,0.02
2013-3-8,41.4,34.5,30.3,34.2,30.9,28.0,100,87,67,30.19,29.99,15,3,22,0.34
2013-3-9,53.4,42.8,34.2,28.1,23.1,15.0,68,48,24,30.30,30.17,12,4,20,0.00
2013-3-10,49.8,38.3,30.6,37.0,31.3,22.0,93,77,53,30.37,30.27,7,1,12,0.00
2013-3-11,52.3,44.8,37.1,48.0,41.6,35.0,96,88,69,30.30,30.07,9,2,14,0.00
2013-3-12,53.1,50.3,44.7,52.1,48.8,40.0,97,94,84,30.07,29.65,10,3,23,1.22
2013-3-13,48.3,41.7,33.3,33.8,29.6,22.9,93,64,38,29.86,29.76,7,2,17,0.00
2013-3-14,38.4,32.2,26.5,27.5,14.5,7.0,71,49,29,29.94,29.82,12,5,25,0.00
2013-3-15,43.0,35.0,27.4,31.3,20.7,10.0,70,56,42,29.94,29.70,9,3,18,0.00
2013-3-16,38.4,33.3,30.3,30.0,25.2,20.9,93,73,56,29.89,29.76,7,1,15,0.02
2013-3-17,36.0,31.4,26.2,29.0,18.9,12.0,91,62,41,30.29,29.90,9,2,16,0.01
2013-3-18,32.9,28.7,24.5,30.0,17.5,9.0,96,65,47,30.40,30.02,7,3,12,0.00
2013-3-19,41.6,35.2,31.1,36.0,33.0,27.0,97,91,74,30.02,29.69,9,3,14,0.73
2013-3-20,41.9,35.6,29.1,26.0,21.6,19.0,75,58,41,29.85,29.77,11,2,20,0.02
2013-3-21,37.8,32.6,28.9,28.0,17.8,13.0,88,56,38,29.82,29.61,7,2,14,0.00
2013-3-22,39.1,32.1,26.6,24.0,19.5,15.0,73,60,48,29.86,29.70,9,2,17,0.00
2013-3-23,43.1,36.8,31.5,25.0,21.9,20.0,67,56,42,29.92,29.79,16,3,22,0.00
2013-3-24,44.4,37.3,29.3,25.0,23.1,20.0,72,57,46,29.93,29.70,10,2,12,0.00
2013-3-25,41.7,38.5,35.5,34.0,28.9,25.0,84,69,53,29.69,29.45,7,1,14,0.00
2013-3-26,48.4,41.6,35.2,33.3,28.8,26.0,76,61,43,29.84,29.57,8,1,12,0.00
2013-3-27,50.8,41.7,34.1,31.2,27.6,23.0,74,58,35,29.95,29.84,13,3,22,0.01
2013-3-28,47.4,42.0,36.9,34.7,31.5,29.8,79,67,56,30.09,29.93,9,3,16,0.00
2013-3-29,51.6,44.8,39.1,32.1,30.3,27.9,72,58,41,30.11,30.03,8,3,16,0.00
2013-3-30,56.1,45.9,36.9,32.2,27.5,21.0,78,52,28,30.15,30.04,8,1,16,0.00
2013-3-31,53.7,44.7,35.2,43.0,32.2,21.9,96,63,40,30.10,29.66,10,2,20,0.15